Time;durP1;ratioP1;P1;durP2;ratioP2;P2;SDS_P1;SDS_P2;PMS_P1;PMS_P2;Temp;Humidity;BMP_temperature;BMP_pressure;BME280_temperature;BME280_humidity;BME280_pressure;Samples;Min_cycle;Max_cycle;Signal;HPM_P1;HPM_P2
2021/09/28 00:02:13;;;;;;;5.87;3.20;;;;;;;8.80;97.13;101371.14;1788434;78;21005;-52
2021/09/28 00:04:40;;;;;;;3.98;3.58;;;;;;;8.77;97.16;101371.98;1788294;80;21174;-50
2021/09/28 00:07:06;;;;;;;9.53;3.60;;;;;;;8.75;97.24;101370.27;1788371;80;20972;-49
2021/09/28 00:09:32;;;;;;;6.15;3.35;;;;;;;8.72;97.37;101375.42;1788406;80;20961;-51
2021/09/28 00:11:59;;;;;;;5.62;3.42;;;;;;;8.68;97.36;101371.08;1761385;80;20972;-52
2021/09/28 00:14:27;;;;;;;4.33;3.90;;;;;;;8.63;97.34;101371.92;1788539;80;20914;-51
2021/09/28 00:16:54;;;;;;;7.42;4.47;;;;;;;8.56;97.39;101379.63;1788406;79;21130;-54
2021/09/28 00:19:21;;;;;;;4.45;4.05;;;;;;;8.50;97.61;101379.61;1808986;78;21044;-52
2021/09/28 00:21:49;;;;;;;5.80;4.00;;;;;;;8.44;97.78;101379.11;1811625;79;20988;-50
2021/09/28 00:24:17;;;;;;;5.17;3.90;;;;;;;8.38;97.84;101377.38;1811767;79;20869;-50
2021/09/28 00:26:43;;;;;;;4.78;4.30;;;;;;;8.33;97.92;101379.92;1811973;79;21509;-54
2021/09/28 00:29:11;;;;;;;5.60;4.47;;;;;;;8.26;98.08;101382.04;1811701;79;21075;-53
2021/09/28 00:31:38;;;;;;;6.90;4.58;;;;;;;8.20;98.33;101384.55;1811661;79;20916;-53
2021/09/28 00:34:06;;;;;;;5.33;4.15;;;;;;;8.16;98.53;101381.53;1811819;78;20893;-50
2021/09/28 00:36:32;;;;;;;5.12;4.28;;;;;;;8.12;98.64;101378.50;1811734;79;20975;-53
2021/09/28 00:38:59;;;;;;;7.30;5.25;;;;;;;8.05;98.69;101390.07;1811838;79;20917;-54
2021/09/28 00:41:25;;;;;;;4.80;4.40;;;;;;;7.97;98.84;101386.58;1811776;79;21026;-50
2021/09/28 00:43:54;;;;;;;10.18;4.75;;;;;;;7.91;99.02;101388.68;1782229;79;20932;-53
2021/09/28 00:46:22;;;;;;;8.75;4.40;;;;;;;7.84;99.10;101395.94;1812079;79;20999;-55
2021/09/28 00:48:48;;;;;;;11.65;4.42;;;;;;;7.79;99.25;101395.45;1811714;79;20968;-55
2021/09/28 00:51:15;;;;;;;5.08;4.67;;;;;;;7.72;99.37;101397.11;1811829;79;21602;-51
2021/09/28 00:53:43;;;;;;;7.62;4.97;;;;;;;7.65;99.66;101387.17;1811974;79;21897;-54
2021/09/28 00:56:14;;;;;;;6.25;4.15;;;;;;;7.61;99.89;101394.44;1811974;79;21007;-50
2021/09/28 00:58:40;;;;;;;8.08;4.75;;;;;;;7.55;99.94;101399.55;1811616;79;20964;-53
2021/09/28 01:01:09;;;;;;;5.22;4.62;;;;;;;7.48;100.00;101398.62;1811783;79;20861;-51
2021/09/28 01:03:37;;;;;;;5.55;4.50;;;;;;;7.42;100.00;101404.56;1811706;79;21478;-53
2021/09/28 01:06:04;;;;;;;8.75;3.85;;;;;;;7.36;100.00;101407.09;1812031;79;21707;-51
2021/09/28 01:08:31;;;;;;;4.87;4.10;;;;;;;7.30;100.00;101401.88;1811754;79;22585;-51
2021/09/28 01:10:58;;;;;;;6.58;5.37;;;;;;;7.21;100.00;101412.09;1782085;78;20981;-52
2021/09/28 01:13:26;;;;;;;8.18;4.42;;;;;;;7.11;100.00;101413.27;1811640;79;20964;-52
2021/09/28 01:16:04;;;;;;;4.75;4.30;;;;;;;7.03;100.00;101414.45;1812051;79;21532;-51
2021/09/28 01:18:34;;;;;;;4.35;3.92;;;;;;;6.98;100.00;101416.56;1811533;79;21484;-50
2021/09/28 01:21:02;;;;;;;10.98;4.75;;;;;;;6.88;100.00;101420.29;1811668;79;20932;-51
2021/09/28 01:23:31;;;;;;;4.75;4.35;;;;;;;6.82;100.00;101420.22;1811688;79;20928;-49
2021/09/28 01:25:57;;;;;;;8.68;4.40;;;;;;;6.75;100.00;101424.86;1811665;79;20905;-50
2021/09/28 01:28:24;;;;;;;5.05;4.55;;;;;;;6.70;100.00;101418.80;1811776;79;21007;-50
2021/09/28 01:30:51;;;;;;;5.85;4.30;;;;;;;6.66;100.00;101424.31;1811905;79;21113;-52
2021/09/28 01:34:22;;;;;;;4.65;4.33;;;;;;;6.63;100.00;101423.39;1797678;79;22668;-50
2021/09/28 01:36:50;;;;;;;5.12;3.95;;;;;;;6.52;100.00;101419.38;1757438;80;20928;-52
2021/09/28 01:39:17;;;;;;;7.12;4.67;;;;;;;6.43;100.00;101418.42;1757248;81;21950;-50
2021/09/28 01:41:45;;;;;;;7.92;4.53;;;;;;;6.40;100.00;101427.39;1757383;81;21242;-53
2021/09/28 01:44:17;;;;;;;4.85;4.55;;;;;;;6.33;100.00;101425.58;1757396;81;20948;-53
2021/09/28 01:46:47;;;;;;;5.55;4.10;;;;;;;6.27;100.00;101423.77;1757419;81;21497;-49
2021/09/28 01:49:16;;;;;;;4.92;4.53;;;;;;;6.24;100.00;101421.56;1757331;81;21518;-52
2021/09/28 01:51:43;;;;;;;6.80;4.53;;;;;;;6.20;100.00;101418.10;1757344;81;21138;-51
2021/09/28 01:54:11;;;;;;;12.18;4.60;;;;;;;6.13;100.00;101423.97;1757292;81;20996;-48
2021/09/28 01:56:38;;;;;;;4.37;3.98;;;;;;;6.12;100.00;101429.95;1757314;81;20983;-52
2021/09/28 01:59:06;;;;;;;4.92;4.35;;;;;;;6.09;100.00;101423.48;1757345;81;21019;-54
2021/09/28 02:01:33;;;;;;;6.45;4.67;;;;;;;6.08;100.00;101424.33;1757778;81;20975;-53
2021/09/28 02:04:00;;;;;;;7.12;4.75;;;;;;;6.05;100.00;101422.56;1757234;81;21187;-54
2021/09/28 02:06:29;;;;;;;7.15;4.00;;;;;;;6.03;100.00;101425.12;1757420;81;21724;-54
2021/09/28 02:08:56;;;;;;;5.42;4.30;;;;;;;6.04;100.00;101418.26;1757432;81;21020;-53
2021/09/28 02:11:22;;;;;;;7.28;4.12;;;;;;;6.03;100.00;101419.98;1757621;81;21485;-48
2021/09/28 02:13:50;;;;;;;6.95;6.03;;;;;;;6.03;100.00;101413.95;1742152;81;21065;-54
2021/09/28 02:16:18;;;;;;;5.08;4.55;;;;;;;6.02;100.00;101413.52;1757319;81;21711;-52
2021/09/28 02:18:44;;;;;;;5.42;4.30;;;;;;;6.02;100.00;101419.54;1757233;81;20940;-54
2021/09/28 02:21:11;;;;;;;10.72;4.37;;;;;;;6.03;100.00;101422.95;1755364;81;20936;-53
2021/09/28 02:23:38;;;;;;;6.87;4.65;;;;;;;6.03;100.00;101427.69;1748945;82;20983;-49
2021/09/28 02:26:05;;;;;;;4.60;4.20;;;;;;;6.08;100.00;101429.47;1749094;82;20971;-55
2021/09/28 02:28:31;;;;;;;8.55;4.87;;;;;;;6.09;100.00;101424.77;1749016;81;21329;-55
2021/09/28 02:30:58;;;;;;;6.90;5.03;;;;;;;6.10;100.00;101432.52;1748994;80;20970;-55
2021/09/28 02:33:24;;;;;;;8.38;4.97;;;;;;;6.12;100.00;101430.83;1742753;82;20972;-51
2021/09/28 02:35:51;;;;;;;12.68;4.03;;;;;;;6.15;100.00;101431.28;1735809;82;20937;-56
2021/09/28 02:38:17;;;;;;;8.73;4.50;;;;;;;6.16;100.00;101433.89;1735914;82;20949;-51
2021/09/28 02:40:44;;;;;;;8.93;5.30;;;;;;;6.16;100.00;101439.44;1714927;82;21015;-48
2021/09/28 02:43:10;;;;;;;11.38;4.75;;;;;;;6.16;100.00;101440.72;1735852;82;20968;-52
2021/09/28 02:45:40;;;;;;;4.80;4.40;;;;;;;6.18;100.00;101441.61;1735434;82;20977;-54
2021/09/28 02:48:06;;;;;;;5.22;4.78;;;;;;;6.18;100.00;101444.19;1735315;82;21020;-53
2021/09/28 02:50:34;;;;;;;8.48;6.00;;;;;;;6.15;100.00;101442.85;1735272;81;20972;-53
2021/09/28 02:53:02;;;;;;;5.90;5.30;;;;;;;6.13;100.00;101445.41;1735209;82;21211;-51
2021/09/28 02:55:29;;;;;;;6.95;4.33;;;;;;;6.14;100.00;101448.84;1735171;82;20937;-54
2021/09/28 02:57:57;;;;;;;5.30;4.10;;;;;;;6.12;100.00;101447.95;1735254;82;20976;-51
2021/09/28 03:00:24;;;;;;;7.25;4.78;;;;;;;6.08;100.00;101445.77;1735231;82;21027;-56
2021/09/28 03:02:51;;;;;;;8.60;4.95;;;;;;;6.01;100.00;101448.66;1714579;82;20941;-50
2021/09/28 03:05:18;;;;;;;5.12;4.60;;;;;;;5.96;100.00;101455.40;1735347;82;21182;-54
2021/09/28 03:07:45;;;;;;;5.95;4.80;;;;;;;5.88;100.00;101449.24;1714147;82;20990;-55
2021/09/28 03:10:11;;;;;;;9.33;5.05;;;;;;;5.80;100.00;101454.25;1735289;81;20945;-51
2021/09/28 03:12:38;;;;;;;5.28;4.85;;;;;;;5.73;100.00;101455.86;1735188;82;20941;-52
2021/09/28 03:15:06;;;;;;;6.47;5.28;;;;;;;5.65;100.00;101460.42;1735429;81;20993;-52
2021/09/28 03:17:33;;;;;;;4.97;4.47;;;;;;;5.57;100.00;101462.84;1735303;82;21200;-51
2021/09/28 03:20:01;;;;;;;8.03;5.53;;;;;;;5.46;100.00;101462.23;1735329;82;20973;-52
2021/09/28 03:22:28;;;;;;;5.97;5.33;;;;;;;5.46;100.00;101462.23;1735229;82;21534;-54
2021/09/28 03:24:54;;;;;;;6.42;5.25;;;;;;;5.40;100.00;101464.66;1735277;82;20977;-52
2021/09/28 03:27:20;;;;;;;8.95;5.53;;;;;;;5.36;100.00;101465.88;1735273;82;20949;-52
2021/09/28 03:29:48;;;;;;;6.47;5.20;;;;;;;5.30;100.00;101467.50;1735321;82;21124;-54
2021/09/28 03:32:14;;;;;;;6.25;5.65;;;;;;;5.27;100.00;101469.12;1735422;81;21511;-56
2021/09/28 03:34:41;;;;;;;5.78;5.12;;;;;;;5.24;100.00;101471.20;1727363;81;21458;-54
2021/09/28 03:37:07;;;;;;;6.62;5.92;;;;;;;5.23;100.00;101475.89;1756910;81;21026;-54
2021/09/28 03:39:34;;;;;;;9.45;5.87;;;;;;;5.20;100.00;101473.70;1757095;81;21631;-56
2021/09/28 03:42:00;;;;;;;7.85;5.65;;;;;;;5.20;100.00;101474.98;1756902;81;21327;-54
2021/09/28 03:44:27;;;;;;;8.60;5.70;;;;;;;5.18;100.00;101479.67;1756907;81;20983;-56
2021/09/28 03:46:53;;;;;;;6.58;5.83;;;;;;;5.18;100.00;101477.51;1756913;81;20975;-56
2021/09/28 03:49:20;;;;;;;6.72;6.03;;;;;;;5.14;100.00;101474.00;1757000;81;21213;-52
2021/09/28 03:51:46;;;;;;;10.00;5.80;;;;;;;5.13;100.00;101477.41;1756813;80;20983;-54
2021/09/28 03:54:13;;;;;;;7.58;6.33;;;;;;;5.11;100.00;101476.94;1756875;81;21416;-50
2021/09/28 03:56:40;;;;;;;8.40;5.62;;;;;;;5.11;100.00;101482.08;1757000;81;20979;-54
2021/09/28 03:59:07;;;;;;;8.58;5.97;;;;;;;5.11;100.00;101480.80;1757015;81;21010;-55
2021/09/28 04:01:34;;;;;;;11.57;6.17;;;;;;;5.12;100.00;101485.94;1757005;81;20956;-53
2021/09/28 04:04:02;;;;;;;6.83;5.87;;;;;;;5.11;100.00;101485.93;1756934;81;20936;-52
2021/09/28 04:06:29;;;;;;;6.22;5.62;;;;;;;5.09;100.00;101491.02;1729077;81;21254;-53
2021/09/28 04:08:55;;;;;;;6.60;5.97;;;;;;;5.08;100.00;101490.56;1756894;81;20948;-48
2021/09/28 04:11:22;;;;;;;9.40;6.03;;;;;;;5.08;100.00;101490.56;1757033;81;21240;-54
2021/09/28 04:13:49;;;;;;;9.73;6.17;;;;;;;5.07;100.00;101493.97;1756841;81;22092;-54
2021/09/28 04:16:19;;;;;;;9.95;6.10;;;;;;;5.08;100.00;101499.98;1757036;81;21521;-53
2021/09/28 04:18:46;;;;;;;8.45;5.97;;;;;;;5.10;100.00;101497.87;1757204;81;21756;-50
2021/09/28 04:21:13;;;;;;;10.30;6.92;;;;;;;5.13;100.00;101495.38;1756960;81;21682;-53
2021/09/28 04:23:40;;;;;;;13.50;6.33;;;;;;;5.16;100.00;101508.27;1757016;81;21588;-54
2021/09/28 04:26:07;;;;;;;17.65;6.00;;;;;;;5.20;100.00;101503.22;1756955;81;20955;-53
2021/09/28 04:28:35;;;;;;;6.65;5.97;;;;;;;5.26;100.00;101505.91;1729501;81;21556;-56
2021/09/28 04:31:02;;;;;;;10.28;6.22;;;;;;;5.30;100.00;101511.55;1756740;81;22116;-50
2021/09/28 04:33:30;;;;;;;11.65;7.08;;;;;;;5.36;100.00;101504.39;1729217;81;21003;-53
2021/09/28 04:35:57;;;;;;;11.25;6.05;;;;;;;5.41;100.00;101497.20;1728645;81;20999;-49
2021/09/28 04:38:23;;;;;;;7.03;5.78;;;;;;;5.48;100.00;101501.20;1736405;81;21012;-54
2021/09/28 04:40:50;;;;;;;8.38;6.47;;;;;;;5.55;100.00;101495.34;1739776;81;20985;-55
2021/09/28 04:43:17;;;;;;;8.13;5.75;;;;;;;5.60;100.00;101496.28;1737628;81;21065;-52
2021/09/28 04:45:43;;;;;;;14.33;6.53;;;;;;;5.66;100.00;101497.67;1740550;81;20941;-53
2021/09/28 04:48:10;;;;;;;11.40;6.15;;;;;;;5.74;100.00;101506.41;1737550;81;21004;-52
2021/09/28 04:50:37;;;;;;;11.25;7.33;;;;;;;5.80;100.00;101505.64;1748203;81;21028;-51
2021/09/28 04:53:04;;;;;;;11.45;6.00;;;;;;;5.88;100.00;101507.95;1737291;81;21000;-52
2021/09/28 04:55:30;;;;;;;8.20;5.72;;;;;;;5.94;100.00;101505.91;1727570;81;21238;-50
2021/09/28 04:57:57;;;;;;;7.12;5.90;;;;;;;6.01;100.00;101514.61;1756861;81;20936;-51
2021/09/28 05:00:23;;;;;;;9.83;6.78;;;;;;;6.07;100.00;101515.14;1756816;81;20967;-55
2021/09/28 05:02:50;;;;;;;11.88;6.47;;;;;;;6.14;100.00;101515.28;1728865;81;20947;-53
2021/09/28 05:05:16;;;;;;;9.50;6.92;;;;;;;6.24;100.00;101520.56;1756845;81;20971;-54
2021/09/28 05:07:42;;;;;;;13.78;5.78;;;;;;;6.30;100.00;101521.53;1757172;81;21065;-51
2021/09/28 05:10:11;;;;;;;8.58;6.25;;;;;;;6.39;100.00;101525.09;1756955;81;20972;-56
2021/09/28 05:12:38;;;;;;;12.78;6.72;;;;;;;6.45;100.00;101516.20;1757094;81;21026;-52
2021/09/28 05:15:06;;;;;;;13.13;6.70;;;;;;;6.52;100.00;101523.57;1756947;81;20959;-53
2021/09/28 05:17:35;;;;;;;7.33;5.97;;;;;;;6.59;100.00;101519.84;1757249;81;20884;-49
2021/09/28 05:20:06;;;;;;;8.35;6.10;;;;;;;6.69;100.00;101527.69;1757074;81;21129;-55
2021/09/28 05:22:32;;;;;;;8.83;6.28;;;;;;;6.76;100.00;101529.09;1756946;81;20940;-51
2021/09/28 05:24:59;;;;;;;15.00;6.03;;;;;;;6.87;100.00;101534.39;1756933;81;21002;-53
2021/09/28 05:27:25;;;;;;;11.50;6.30;;;;;;;7.00;100.00;101534.58;1756769;81;21030;-52
2021/09/28 05:29:52;;;;;;;8.48;5.75;;;;;;;7.10;100.00;101537.70;1757028;81;20943;-54
2021/09/28 05:32:18;;;;;;;13.95;6.70;;;;;;;7.23;100.00;101534.02;1756964;81;21074;-53
2021/09/28 05:34:45;;;;;;;13.68;6.37;;;;;;;7.35;100.00;101540.59;1756829;81;20912;-53
2021/09/28 05:37:11;;;;;;;14.68;6.45;;;;;;;7.46;100.00;101542.02;1757169;81;21271;-56
2021/09/28 05:39:38;;;;;;;12.40;6.35;;;;;;;7.61;100.00;101547.77;1757092;81;21573;-51
2021/09/28 05:42:05;;;;;;;10.32;7.12;;;;;;;7.72;100.00;101544.02;1757241;81;21003;-50
2021/09/28 05:44:33;;;;;;;12.00;6.83;;;;;;;7.82;100.00;101548.41;1729492;81;20959;-53
2021/09/28 05:47:00;;;;;;;14.45;7.17;;;;;;;7.96;100.00;101549.88;1756954;81;20888;-53
2021/09/28 05:49:26;;;;;;;8.23;5.92;;;;;;;8.06;100.00;101545.64;1756726;81;20924;-49
2021/09/28 05:51:54;;;;;;;11.18;6.70;;;;;;;8.17;100.00;101544.05;1756974;81;21030;-53
2021/09/28 05:54:21;;;;;;;15.23;6.78;;;;;;;8.33;100.00;101540.28;1750466;81;21502;-52
2021/09/28 05:56:49;;;;;;;17.02;6.08;;;;;;;8.51;100.00;101542.20;1735175;82;21874;-53
2021/09/28 05:59:17;;;;;;;10.00;6.12;;;;;;;8.72;100.00;101540.19;1735132;82;21043;-53
2021/09/28 06:01:44;;;;;;;11.18;5.95;;;;;;;8.88;100.00;101543.73;1735102;82;20936;-53
2021/09/28 06:04:11;;;;;;;11.88;5.72;;;;;;;8.93;100.00;101548.05;1735184;82;21254;-50
2021/09/28 06:06:39;;;;;;;10.30;5.33;;;;;;;8.95;100.00;101548.92;1735194;82;21031;-53
2021/09/28 06:09:07;;;;;;;10.23;5.92;;;;;;;9.08;100.00;101541.69;1735265;81;20925;-55
2021/09/28 06:11:35;;;;;;;16.27;6.10;;;;;;;9.22;100.00;101548.22;1735107;82;20933;-53
2021/09/28 06:14:02;;;;;;;11.22;6.58;;;;;;;9.35;99.77;101550.42;1734986;82;21043;-55
2021/09/28 06:16:28;;;;;;;16.00;5.58;;;;;;;9.43;98.28;101555.19;1734982;82;20949;-55
2021/09/28 06:18:56;;;;;;;12.98;5.65;;;;;;;9.49;96.79;101557.81;1735233;82;20976;-55
2021/09/28 06:21:24;;;;;;;17.05;5.67;;;;;;;9.57;95.27;101559.55;1735202;82;20964;-54
2021/09/28 06:23:53;;;;;;;17.57;6.33;;;;;;;9.64;94.15;101556.13;1735266;82;20898;-57
2021/09/28 06:26:21;;;;;;;18.60;5.90;;;;;;;9.74;93.59;101561.77;1735321;82;21475;-56
2021/09/28 07:01:04;;;;;;;15.28;5.80;;;;;;;11.25;85.96;101564.77;1889574;76;22608;-53
2021/09/28 07:03:33;;;;;;;23.32;6.20;;;;;;;11.33;83.65;101566.44;1860376;77;21010;-53
2021/09/28 07:05:59;;;;;;;13.00;5.58;;;;;;;11.32;82.03;101574.23;1860460;77;21860;-53
2021/09/28 07:08:25;;;;;;;17.75;5.75;;;;;;;11.27;81.55;101570.36;1860153;77;21668;-54
2021/09/28 07:10:54;;;;;;;19.70;5.12;;;;;;;11.31;82.02;101572.06;1860499;77;20947;-53
2021/09/28 07:13:20;;;;;;;20.17;5.83;;;;;;;11.40;81.94;101576.36;1860252;77;20934;-53
2021/09/28 07:15:46;;;;;;;16.37;5.72;;;;;;;11.41;82.08;101582.42;1827479;77;20904;-53
2021/09/28 07:18:13;;;;;;;20.00;5.53;;;;;;;11.49;81.19;101578.93;1860293;77;21196;-54
2021/09/28 07:20:42;;;;;;;25.12;5.58;;;;;;;11.48;79.72;101578.47;1860308;77;20924;-53
2021/09/28 07:23:08;;;;;;;18.07;5.83;;;;;;;11.42;79.54;101580.25;1860395;77;20923;-53
2021/09/28 07:25:35;;;;;;;17.02;5.20;;;;;;;11.41;79.91;101581.12;1860201;77;20923;-54
2021/09/28 07:28:03;;;;;;;9.95;5.12;;;;;;;11.49;80.13;101581.52;1860346;77;21018;-53
2021/09/28 07:30:33;;;;;;;15.13;5.78;;;;;;;11.68;79.93;101587.90;1860346;77;21154;-54
2021/09/28 07:33:01;;;;;;;14.68;5.65;;;;;;;11.90;79.42;101580.88;1860274;77;20978;-53
2021/09/28 07:35:29;;;;;;;13.70;4.85;;;;;;;12.12;78.54;101585.94;1860138;77;20948;-53
2021/09/28 07:37:55;;;;;;;22.42;5.15;;;;;;;12.34;78.08;101581.89;1860614;77;20939;-54
2021/09/28 07:40:21;;;;;;;16.62;4.80;;;;;;;12.60;77.27;101575.19;1860396;77;20904;-54
2021/09/28 07:42:49;;;;;;;22.22;5.05;;;;;;;12.86;76.54;101571.48;1860549;77;21768;-54
2021/09/28 07:45:16;;;;;;;16.45;4.40;;;;;;;13.05;75.58;101575.19;1860009;77;21701;-54
2021/09/28 07:47:42;;;;;;;14.68;4.72;;;;;;;13.29;74.71;101574.48;1860661;77;21500;-54
2021/09/28 07:50:09;;;;;;;14.43;4.60;;;;;;;13.25;73.34;101567.58;1860405;77;21492;-54
2021/09/28 07:52:35;;;;;;;22.22;4.35;;;;;;;13.25;73.09;101572.36;1860750;77;20903;-54
2021/09/28 07:55:02;;;;;;;14.85;4.72;;;;;;;13.23;72.21;101571.06;1860203;77;21102;-54
2021/09/28 07:57:29;;;;;;;17.52;4.90;;;;;;;13.22;72.95;101572.39;1860412;77;21512;-54
2021/09/28 07:59:56;;;;;;;21.10;5.00;;;;;;;13.37;73.84;101576.55;1859307;77;20876;-54
2021/09/28 08:02:24;;;;;;;18.32;4.37;;;;;;;13.44;73.50;101573.02;1858065;77;21015;-54
2021/09/28 08:04:51;;;;;;;17.32;4.20;;;;;;;13.52;72.86;101574.68;1858198;77;20963;-54
2021/09/28 08:07:17;;;;;;;18.20;4.83;;;;;;;13.55;72.81;101568.13;1829434;77;21047;-54
2021/09/28 08:09:44;;;;;;;28.90;5.65;;;;;;;13.58;72.67;101575.89;1857878;77;21477;-54
2021/09/28 08:12:11;;;;;;;24.95;4.87;;;;;;;13.67;71.72;101571.86;1857659;77;21521;-54
2021/09/28 08:14:37;;;;;;;23.60;4.62;;;;;;;13.67;70.24;101567.95;1857884;77;21018;-54
2021/09/28 08:17:05;;;;;;;26.00;5.28;;;;;;;13.67;69.70;101571.86;1857766;77;21480;-54
2021/09/28 08:19:33;;;;;;;25.02;5.10;;;;;;;13.68;68.99;101567.53;1857788;77;21088;-54
2021/09/28 08:22:00;;;;;;;19.90;5.62;;;;;;;13.65;68.44;101576.22;1828833;77;20958;-54
2021/09/28 08:24:30;;;;;;;23.20;5.03;;;;;;;13.53;68.58;101568.14;1857906;77;20970;-54
2021/09/28 08:29:40;;;;;;;19.12;4.55;;;;;;;13.51;69.04;101575.11;1857661;77;20967;-53
2021/09/28 08:32:07;;;;;;;16.27;4.62;;;;;;;13.67;68.63;101577.06;1857596;77;21132;-53
2021/09/28 08:34:34;;;;;;;20.75;4.47;;;;;;;13.83;67.26;101571.66;1857521;77;20884;-53
2021/09/28 08:37:04;;;;;;;18.40;4.45;;;;;;;13.91;65.59;101571.09;1828823;77;21523;-54
2021/09/28 08:39:31;;;;;;;15.72;4.92;;;;;;;13.96;66.43;101565.37;1857602;77;21006;-54
2021/09/28 08:41:58;;;;;;;34.10;6.33;;;;;;;14.24;66.12;101566.23;1857739;76;21478;-54
2021/09/28 08:44:26;;;;;;;25.12;5.08;;;;;;;14.61;65.25;101561.73;1857523;77;21030;-54
2021/09/28 08:46:52;;;;;;;34.15;5.05;;;;;;;15.02;63.45;101560.56;1857484;77;20994;-54
2021/09/28 08:49:20;;;;;;;27.50;4.55;;;;;;;15.29;61.86;101562.67;1857451;77;20950;-54
2021/09/28 08:51:47;;;;;;;24.47;4.65;;;;;;;15.46;60.03;101563.16;1828653;77;20935;-54
2021/09/28 08:54:15;;;;;;;34.43;4.15;;;;;;;15.38;59.50;101566.38;1857518;77;21494;-53
2021/09/28 08:56:42;;;;;;;22.20;4.40;;;;;;;15.23;59.76;101564.48;1857517;77;21124;-53
2021/09/28 08:59:10;;;;;;;38.00;5.22;;;;;;;15.17;60.07;101567.23;1857332;77;21516;-54
2021/09/28 09:01:55;;;;;;;29.00;4.40;;;;;;;14.97;59.78;101571.53;1859401;77;20955;-54
2021/09/28 09:04:25;;;;;;;19.17;4.33;;;;;;;14.77;60.67;101573.19;1859630;77;20982;-54
2021/09/28 09:06:52;;;;;;;22.87;4.25;;;;;;;14.82;61.86;101567.91;1859641;77;20927;-54
2021/09/28 09:09:18;;;;;;;23.00;4.87;;;;;;;14.90;61.57;101574.70;1859517;77;21147;-54
2021/09/28 09:11:47;;;;;;;40.63;5.50;;;;;;;14.91;61.06;101574.27;1859667;77;20884;-54
2021/09/28 09:14:25;;;;;;;20.60;5.00;;;;;;;14.93;61.53;101569.42;1859701;77;21536;-54
2021/09/28 09:16:54;;;;;;;17.87;4.55;;;;;;;14.99;61.59;101574.09;1859592;77;20963;-54
2021/09/28 09:19:24;;;;;;;27.25;5.20;;;;;;;15.03;60.62;101573.14;1859339;77;20983;-54
2021/09/28 09:21:55;;;;;;;22.70;5.72;;;;;;;14.92;60.33;101569.01;1859447;77;21066;-54
2021/09/28 09:24:50;;;;;;;33.35;5.78;;;;;;;14.94;62.00;101576.81;1857837;77;20962;-54
2021/09/28 09:27:20;;;;;;;22.25;4.47;;;;;;;15.15;60.38;101570.31;1859637;77;20928;-54
2021/09/28 09:30:10;;;;;;;35.23;4.75;;;;;;;15.29;60.67;101567.42;1819488;76;21017;-54
2021/09/28 09:32:48;;;;;;;20.50;5.12;;;;;;;15.50;59.05;101572.63;1860070;77;20962;-54
2021/09/28 09:35:31;;;;;;;24.18;5.10;;;;;;;15.66;58.05;101576.22;1859578;77;21135;-55
2021/09/28 09:38:13;;;;;;;30.60;5.85;;;;;;;15.85;59.00;101582.34;1859561;77;20978;-54
2021/09/28 09:40:43;;;;;;;32.30;5.70;;;;;;;15.92;58.46;101579.59;1859569;77;20943;-54
2021/09/28 09:43:10;;;;;;;30.68;5.03;;;;;;;16.06;56.80;101577.97;1858541;77;20924;-55
2021/09/28 09:45:37;;;;;;;32.90;5.60;;;;;;;16.01;57.80;101586.80;1859438;77;20936;-55
2021/09/28 09:48:29;;;;;;;34.08;4.80;;;;;;;16.09;57.96;101581.81;1859837;77;21527;-55
2021/09/28 09:51:04;;;;;;;24.92;4.87;;;;;;;16.22;57.19;101581.50;1859580;77;20990;-54
2021/09/28 09:53:31;;;;;;;24.90;4.60;;;;;;;16.15;57.02;101580.78;1859652;77;26585;-55
2021/09/28 09:55:59;;;;;;;28.07;4.60;;;;;;;16.14;57.78;101583.45;1859385;77;21499;-55
2021/09/28 09:58:26;;;;;;;20.75;5.15;;;;;;;16.21;57.92;101582.39;1859943;77;21472;-54
2021/09/28 10:00:54;;;;;;;28.87;5.83;;;;;;;16.27;56.63;101578.31;1859513;77;20916;-55
2021/09/28 10:03:21;;;;;;;34.23;5.20;;;;;;;16.33;55.96;101585.16;1859294;77;20994;-54
2021/09/28 10:05:47;;;;;;;28.38;4.50;;;;;;;16.22;55.99;101584.11;1859684;77;20958;-54
2021/09/28 10:08:14;;;;;;;32.88;5.62;;;;;;;16.13;56.63;101574.73;1859633;77;20911;-54
2021/09/28 10:10:41;;;;;;;35.98;5.30;;;;;;;16.08;57.09;101578.78;1859670;77;20998;-55
2021/09/28 10:13:10;;;;;;;43.00;5.25;;;;;;;16.19;56.76;101580.27;1859640;77;21146;-54
2021/09/28 10:15:38;;;;;;;27.32;5.08;;;;;;;16.35;56.00;101580.75;1824983;77;21002;-55
2021/09/28 10:18:05;;;;;;;35.45;5.28;;;;;;;16.52;55.41;101573.78;1859610;77;20991;-53
2021/09/28 10:20:32;;;;;;;35.90;5.97;;;;;;;16.76;56.48;101572.73;1859856;77;20936;-54
2021/09/28 10:23:15;;;;;;;41.68;5.58;;;;;;;16.97;55.29;101568.70;1859642;77;21204;-54
2021/09/28 10:25:45;;;;;;;27.52;5.10;;;;;;;17.05;54.44;101568.49;1859838;77;20864;-53
2021/09/28 10:28:18;;;;;;;34.88;4.58;;;;;;;17.14;53.29;101571.31;1859556;76;21358;-53
2021/09/28 10:30:47;;;;;;;47.53;7.00;;;;;;;17.06;55.06;101572.39;1859653;77;20982;-54
2021/09/28 10:33:30;;;;;;;33.25;5.15;;;;;;;17.06;53.94;101578.92;1859625;77;21002;-54
2021/09/28 10:36:10;;;;;;;34.70;5.95;;;;;;;16.74;53.32;101575.41;1859657;77;20940;-54
2021/09/28 10:38:58;;;;;;;37.58;5.83;;;;;;;16.21;55.19;101591.54;1859550;77;22560;-54
2021/09/28 10:41:42;;;;;;;42.20;5.65;;;;;;;15.75;56.39;101590.83;1859982;77;20970;-54
2021/09/28 10:44:34;;;;;;;33.35;5.67;;;;;;;15.37;57.94;101589.45;1859464;76;20950;-54
2021/09/28 10:46:59;;;;;;;38.55;5.70;;;;;;;15.14;58.34;101591.19;1826424;77;20966;-54
2021/09/28 10:49:28;;;;;;;30.72;5.12;;;;;;;14.77;59.02;101599.25;1859273;77;20979;-54
2021/09/28 10:52:25;;;;;;;39.03;6.12;;;;;;;14.44;60.17;101596.31;1859781;77;21140;-54
2021/09/28 10:55:13;;;;;;;23.25;5.45;;;;;;;14.17;61.37;101597.17;1844985;77;20928;-53
2021/09/28 10:58:01;;;;;;;29.90;4.75;;;;;;;13.94;62.48;101603.58;1859568;77;20931;-55
2021/09/28 12:43:25;;;;;;;34.58;4.65;;;;;;;14.21;62.84;101643.98;1798157;79;22842;-50
2021/09/28 12:46:01;;;;;;;22.77;4.70;;;;;;;14.30;62.57;101642.12;1759124;81;21390;-55
2021/09/28 13:09:26;;;;;;;21.30;4.60;;;;;;;14.69;61.62;101656.71;1774906;80;22420;-52
2021/09/28 13:11:54;;;;;;;24.35;4.95;;;;;;;14.72;61.06;101658.42;1735912;82;20903;-53
2021/09/28 13:14:24;;;;;;;28.15;4.42;;;;;;;14.65;60.44;101659.80;1766303;79;21012;-53
2021/09/28 13:16:51;;;;;;;36.45;5.70;;;;;;;14.54;60.95;101664.34;1766144;81;20975;-53
2021/09/28 13:19:19;;;;;;;27.95;5.47;;;;;;;14.51;61.35;101663.05;1766359;81;20947;-53
2021/09/28 13:21:47;;;;;;;34.67;5.83;;;;;;;14.41;61.14;101661.48;1766239;79;20981;-53
2021/09/28 13:24:14;;;;;;;33.50;7.80;;;;;;;14.22;61.81;101665.23;1766201;79;20958;-53
2021/09/28 13:26:40;;;;;;;27.65;6.40;;;;;;;14.13;62.22;101664.50;1766346;81;21119;-53
2021/09/28 13:29:07;;;;;;;26.55;5.55;;;;;;;14.03;62.72;101672.88;1766160;80;20977;-53
2021/09/28 13:31:34;;;;;;;18.17;4.83;;;;;;;13.92;62.55;101672.59;1738231;81;20903;-53
2021/09/28 13:34:02;;;;;;;21.82;5.40;;;;;;;13.82;63.53;101668.37;1766199;79;20990;-53
2021/09/28 13:36:28;;;;;;;17.52;4.87;;;;;;;13.77;64.32;101677.98;1766205;79;20982;-53
2021/09/28 13:38:55;;;;;;;30.08;5.25;;;;;;;13.72;64.84;101674.13;1766380;79;21772;-53
2021/09/28 13:41:21;;;;;;;21.80;5.12;;;;;;;13.67;64.95;101678.98;1766195;79;22190;-52
2021/09/28 13:43:48;;;;;;;24.82;5.00;;;;;;;13.61;64.61;101676.00;1738175;81;21507;-52
2021/09/28 13:46:15;;;;;;;28.83;5.45;;;;;;;13.52;65.35;101676.97;1766534;81;21551;-53
2021/09/28 13:48:41;;;;;;;23.85;6.42;;;;;;;13.44;65.35;101675.75;1766524;81;20970;-53
2021/09/28 13:51:07;;;;;;;24.63;5.83;;;;;;;13.39;65.74;101681.41;1766282;81;21120;-52
2021/09/28 13:53:34;;;;;;;24.77;4.67;;;;;;;13.33;65.93;101690.58;1766006;81;21471;-52
2021/09/28 13:56:01;;;;;;;45.45;6.12;;;;;;;13.29;66.49;101688.90;1766233;79;21539;-53
2021/09/28 13:58:27;;;;;;;25.72;5.65;;;;;;;13.24;66.74;101692.83;1746062;81;21610;-52
2021/09/28 14:00:54;;;;;;;28.02;5.17;;;;;;;13.18;66.97;101693.75;1708485;82;21569;-52
2021/09/28 14:03:20;;;;;;;27.58;5.08;;;;;;;13.10;66.83;101699.47;1735975;82;21169;-53
2021/09/28 14:05:46;;;;;;;18.42;5.12;;;;;;;13.03;67.21;101706.91;1735651;82;20983;-53
2021/09/28 14:08:13;;;;;;;25.08;5.97;;;;;;;12.97;67.05;101705.63;1741083;82;21035;-53